sensor_id;sensor_type;location;lat;lon;timestamp;pressure;altitude;pressure_sealevel;temperature;humidity
50380;BME280;37474;59.468;18.040;2022-11-11T00:01:24;100790.22;;;9.38;100.00
50380;BME280;37474;59.468;18.040;2022-11-11T00:03:55;100784.38;;;9.35;100.00
50380;BME280;37474;59.468;18.040;2022-11-11T00:06:25;100777.28;;;9.38;100.00
50380;BME280;37474;59.468;18.040;2022-11-11T00:08:53;100805.97;;;9.52;100.00
50380;BME280;37474;59.468;18.040;2022-11-11T00:11:22;100732.34;;;9.03;100.00
50380;BME280;37474;59.468;18.040;2022-11-11T00:13:53;100801.72;;;9.51;100.00
50380;BME280;37474;59.468;18.040;2022-11-11T00:16:21;100767.53;;;9.45;100.00
50380;BME280;37474;59.468;18.040;2022-11-11T00:18:50;100752.53;;;9.51;100.00
50380;BME280;37474;59.468;18.040;2022-11-11T00:21:39;100751.56;;;9.54;100.00
50380;BME280;37474;59.468;18.040;2022-11-11T00:24:28;100767.25;;;9.51;100.00
50380;BME280;37474;59.468;18.040;2022-11-11T00:27:16;100766.19;;;9.55;100.00
50380;BME280;37474;59.468;18.040;2022-11-11T00:29:48;100770.75;;;9.50;100.00
50380;BME280;37474;59.468;18.040;2022-11-11T00:32:16;100763.88;;;9.49;100.00
50380;BME280;37474;59.468;18.040;2022-11-11T00:34:57;100761.34;;;9.47;100.00
50380;BME280;37474;59.468;18.040;2022-11-11T00:37:46;100765.31;;;9.55;100.00
50380;BME280;37474;59.468;18.040;2022-11-11T00:40:19;100765.44;;;9.70;100.00
50380;BME280;37474;59.468;18.040;2022-11-11T00:42:46;100730.16;;;9.50;100.00
50380;BME280;37474;59.468;18.040;2022-11-11T00:45:14;100744.00;;;9.68;100.00
50380;BME280;37474;59.468;18.040;2022-11-11T00:47:44;100735.31;;;9.69;100.00
50380;BME280;37474;59.468;18.040;2022-11-11T00:50:29;100722.78;;;9.60;100.00
50380;BME280;37474;59.468;18.040;2022-11-11T00:53:20;100726.91;;;9.64;100.00
50380;BME280;37474;59.468;18.040;2022-11-11T00:55:52;100727.25;;;9.75;100.00
50380;BME280;37474;59.468;18.040;2022-11-11T00:58:24;100728.88;;;9.78;100.00
50380;BME280;37474;59.468;18.040;2022-11-11T01:00:54;100686.72;;;9.57;100.00
50380;BME280;37474;59.468;18.040;2022-11-11T01:03:22;100725.44;;;9.77;100.00
50380;BME280;37474;59.468;18.040;2022-11-11T01:05:59;100698.00;;;9.73;100.00
50380;BME280;37474;59.468;18.040;2022-11-11T01:08:28;100740.22;;;9.93;100.00
50380;BME280;37474;59.468;18.040;2022-11-11T01:10:57;100691.69;;;9.79;100.00
50380;BME280;37474;59.468;18.040;2022-11-11T01:13:26;100722.09;;;9.93;100.00
50380;BME280;37474;59.468;18.040;2022-11-11T01:16:00;100736.88;;;10.08;100.00
50380;BME280;37474;59.468;18.040;2022-11-11T01:18:31;100684.94;;;9.94;100.00
50380;BME280;37474;59.468;18.040;2022-11-11T01:21:02;100710.88;;;10.10;100.00
50380;BME280;37474;59.468;18.040;2022-11-11T01:23:34;100710.66;;;10.14;100.00
50380;BME280;37474;59.468;18.040;2022-11-11T01:26:10;100684.31;;;9.89;100.00
50380;BME280;37474;59.468;18.040;2022-11-11T01:28:39;100637.53;;;9.74;100.00
50380;BME280;37474;59.468;18.040;2022-11-11T01:31:13;100712.50;;;10.12;100.00
50380;BME280;37474;59.468;18.040;2022-11-11T01:33:41;100693.25;;;10.00;100.00
50380;BME280;37474;59.468;18.040;2022-11-11T01:36:11;100717.38;;;10.18;100.00
50380;BME280;37474;59.468;18.040;2022-11-11T01:38:43;100725.63;;;10.26;100.00
50380;BME280;37474;59.468;18.040;2022-11-11T01:41:13;100729.28;;;10.22;100.00
50380;BME280;37474;59.468;18.040;2022-11-11T01:44:17;100729.84;;;10.29;100.00
50380;BME280;37474;59.468;18.040;2022-11-11T01:46:48;100732.81;;;10.39;100.00
50380;BME280;37474;59.468;18.040;2022-11-11T01:49:27;100720.53;;;10.25;100.00
50380;BME280;37474;59.468;18.040;2022-11-11T01:52:01;100715.97;;;10.30;100.00
50380;BME280;37474;59.468;18.040;2022-11-11T01:54:40;100712.00;;;10.40;100.00
50380;BME280;37474;59.468;18.040;2022-11-11T01:57:14;100724.13;;;10.40;100.00
50380;BME280;37474;59.468;18.040;2022-11-11T01:59:49;100718.84;;;10.41;100.00
50380;BME280;37474;59.468;18.040;2022-11-11T02:02:31;100703.06;;;10.46;100.00
50380;BME280;37474;59.468;18.040;2022-11-11T02:05:03;100692.41;;;10.35;100.00
50380;BME280;37474;59.468;18.040;2022-11-11T02:07:49;100711.22;;;10.38;100.00
50380;BME280;37474;59.468;18.040;2022-11-11T02:10:24;100687.38;;;10.31;100.00
50380;BME280;37474;59.468;18.040;2022-11-11T02:12:53;100652.75;;;10.15;100.00
50380;BME280;37474;59.468;18.040;2022-11-11T02:15:41;100652.63;;;10.18;100.00
50380;BME280;37474;59.468;18.040;2022-11-11T02:18:09;100628.56;;;10.16;100.00
50380;BME280;37474;59.468;18.040;2022-11-11T02:20:39;100652.38;;;10.40;100.00
50380;BME280;37474;59.468;18.040;2022-11-11T02:23:15;100657.94;;;10.50;100.00
50380;BME280;37474;59.468;18.040;2022-11-11T02:25:48;100653.34;;;10.55;100.00
50380;BME280;37474;59.468;18.040;2022-11-11T02:28:23;100648.16;;;10.55;100.00
50380;BME280;37474;59.468;18.040;2022-11-11T02:30:52;100636.41;;;10.48;100.00
50380;BME280;37474;59.468;18.040;2022-11-11T02:33:20;100637.09;;;10.51;100.00
50380;BME280;37474;59.468;18.040;2022-11-11T02:35:54;100628.06;;;10.58;100.00
50380;BME280;37474;59.468;18.040;2022-11-11T02:38:26;100623.47;;;10.48;100.00
50380;BME280;37474;59.468;18.040;2022-11-11T02:40:58;100612.34;;;10.46;100.00
50380;BME280;37474;59.468;18.040;2022-11-11T02:43:43;100603.41;;;10.51;100.00
50380;BME280;37474;59.468;18.040;2022-11-11T02:46:13;100626.66;;;10.53;100.00
50380;BME280;37474;59.468;18.040;2022-11-11T02:48:42;100628.25;;;10.55;100.00
50380;BME280;37474;59.468;18.040;2022-11-11T02:51:11;100617.63;;;10.60;100.00
50380;BME280;37474;59.468;18.040;2022-11-11T02:53:42;100602.84;;;10.62;100.00
50380;BME280;37474;59.468;18.040;2022-11-11T02:56:11;100599.47;;;10.60;100.00
50380;BME280;37474;59.468;18.040;2022-11-11T02:59:03;100594.22;;;10.62;100.00
50380;BME280;37474;59.468;18.040;2022-11-11T03:01:31;100554.06;;;10.37;100.00
50380;BME280;37474;59.468;18.040;2022-11-11T03:03:59;100564.69;;;10.48;100.00
50380;BME280;37474;59.468;18.040;2022-11-11T03:06:31;100573.81;;;10.55;100.00
50380;BME280;37474;59.468;18.040;2022-11-11T03:08:59;100590.34;;;10.53;100.00
50380;BME280;37474;59.468;18.040;2022-11-11T03:11:28;100570.69;;;10.49;100.00
50380;BME280;37474;59.468;18.040;2022-11-11T03:14:00;100589.97;;;10.61;100.00
50380;BME280;37474;59.468;18.040;2022-11-11T03:16:29;100558.84;;;10.45;100.00
50380;BME280;37474;59.468;18.040;2022-11-11T03:19:18;100591.88;;;10.73;100.00
50380;BME280;37474;59.468;18.040;2022-11-11T03:21:46;100573.00;;;10.55;100.00
50380;BME280;37474;59.468;18.040;2022-11-11T03:24:35;100574.13;;;10.65;100.00
50380;BME280;37474;59.468;18.040;2022-11-11T03:27:24;100576.09;;;10.77;100.00
50380;BME280;37474;59.468;18.040;2022-11-11T03:29:54;100578.84;;;10.74;100.00
50380;BME280;37474;59.468;18.040;2022-11-11T03:32:22;100585.69;;;10.75;100.00
50380;BME280;37474;59.468;18.040;2022-11-11T03:34:51;100574.81;;;10.69;100.00
50380;BME280;37474;59.468;18.040;2022-11-11T03:37:21;100576.25;;;10.74;100.00
50380;BME280;37474;59.468;18.040;2022-11-11T03:40:21;100585.00;;;10.88;100.00
50380;BME280;37474;59.468;18.040;2022-11-11T03:42:50;100573.16;;;10.83;100.00
50380;BME280;37474;59.468;18.040;2022-11-11T03:45:18;100577.16;;;10.89;100.00
50380;BME280;37474;59.468;18.040;2022-11-11T03:47:48;100551.63;;;10.66;100.00
50380;BME280;37474;59.468;18.040;2022-11-11T03:50:18;100585.00;;;10.88;100.00
50380;BME280;37474;59.468;18.040;2022-11-11T03:52:46;100555.00;;;10.68;100.00
50380;BME280;37474;59.468;18.040;2022-11-11T03:55:16;100575.22;;;10.93;100.00
50380;BME280;37474;59.468;18.040;2022-11-11T03:57:46;100583.84;;;10.93;100.00
50380;BME280;37474;59.468;18.040;2022-11-11T04:00:17;100582.75;;;10.97;100.00
50380;BME280;37474;59.468;18.040;2022-11-11T04:02:51;100589.69;;;10.97;100.00
50380;BME280;37474;59.468;18.040;2022-11-11T04:05:47;100563.38;;;10.89;100.00
50380;BME280;37474;59.468;18.040;2022-11-11T04:08:32;100562.84;;;10.98;100.00
50380;BME280;37474;59.468;18.040;2022-11-11T04:11:24;100571.28;;;11.01;100.00
50380;BME280;37474;59.468;18.040;2022-11-11T04:13:56;100527.22;;;10.86;100.00
50380;BME280;37474;59.468;18.040;2022-11-11T04:16:51;100578.63;;;11.09;100.00
50380;BME280;37474;59.468;18.040;2022-11-11T04:19:20;100560.09;;;11.01;100.00
50380;BME280;37474;59.468;18.040;2022-11-11T04:22:07;100547.72;;;10.90;100.00
50380;BME280;37474;59.468;18.040;2022-11-11T04:24:37;100545.69;;;10.95;100.00
50380;BME280;37474;59.468;18.040;2022-11-11T04:27:25;100586.66;;;11.20;100.00
50380;BME280;37474;59.468;18.040;2022-11-11T04:29:55;100560.34;;;11.26;100.00
50380;BME280;37474;59.468;18.040;2022-11-11T04:32:23;100566.69;;;11.36;100.00
50380;BME280;37474;59.468;18.040;2022-11-11T04:35:10;100547.06;;;11.47;100.00
50380;BME280;37474;59.468;18.040;2022-11-11T04:37:44;100554.41;;;11.54;100.00
50380;BME280;37474;59.468;18.040;2022-11-11T04:40:17;100553.34;;;11.73;100.00
50380;BME280;37474;59.468;18.040;2022-11-11T04:43:04;100554.91;;;11.75;100.00
50380;BME280;37474;59.468;18.040;2022-11-11T04:45:34;100546.97;;;11.78;100.00
50380;BME280;37474;59.468;18.040;2022-11-11T04:48:07;100498.41;;;11.64;100.00
50380;BME280;37474;59.468;18.040;2022-11-11T04:50:37;100499.66;;;11.73;100.00
50380;BME280;37474;59.468;18.040;2022-11-11T04:53:09;100499.44;;;11.76;100.00
50380;BME280;37474;59.468;18.040;2022-11-11T04:55:38;100511.09;;;11.85;100.00
50380;BME280;37474;59.468;18.040;2022-11-11T04:58:28;100533.47;;;12.02;100.00
50380;BME280;37474;59.468;18.040;2022-11-11T05:00:56;100545.13;;;12.09;100.00
50380;BME280;37474;59.468;18.040;2022-11-11T05:03:25;100510.81;;;11.89;100.00
50380;BME280;37474;59.468;18.040;2022-11-11T05:05:57;100547.66;;;12.10;100.00
50380;BME280;37474;59.468;18.040;2022-11-11T05:08:44;100554.31;;;12.14;100.00
50380;BME280;37474;59.468;18.040;2022-11-11T05:11:28;100557.75;;;12.15;100.00
50380;BME280;37474;59.468;18.040;2022-11-11T05:13:57;100571.03;;;12.25;100.00
50380;BME280;37474;59.468;18.040;2022-11-11T05:16:48;100571.31;;;12.20;100.00
50380;BME280;37474;59.468;18.040;2022-11-11T05:19:35;100573.19;;;12.18;100.00
50380;BME280;37474;59.468;18.040;2022-11-11T05:22:27;100581.81;;;12.19;100.00
50380;BME280;37474;59.468;18.040;2022-11-11T05:24:55;100584.59;;;12.30;100.00
50380;BME280;37474;59.468;18.040;2022-11-11T05:27:45;100581.53;;;12.23;100.00
50380;BME280;37474;59.468;18.040;2022-11-11T05:30:14;100565.84;;;12.25;100.00
50380;BME280;37474;59.468;18.040;2022-11-11T05:32:43;100561.09;;;12.31;100.00
50380;BME280;37474;59.468;18.040;2022-11-11T05:35:16;100541.25;;;12.16;100.00
50380;BME280;37474;59.468;18.040;2022-11-11T05:37:44;100584.03;;;12.39;100.00
50380;BME280;37474;59.468;18.040;2022-11-11T05:40:38;100576.13;;;12.40;100.00
50380;BME280;37474;59.468;18.040;2022-11-11T05:43:06;100582.28;;;12.39;100.00
50380;BME280;37474;59.468;18.040;2022-11-11T05:45:33;100582.44;;;12.36;100.00
50380;BME280;37474;59.468;18.040;2022-11-11T05:48:04;100581.50;;;12.37;100.00
50380;BME280;37474;59.468;18.040;2022-11-11T05:50:33;100577.25;;;12.36;100.00
50380;BME280;37474;59.468;18.040;2022-11-11T05:53:07;100569.72;;;12.46;100.00
50380;BME280;37474;59.468;18.040;2022-11-11T05:55:35;100571.84;;;12.54;100.00
50380;BME280;37474;59.468;18.040;2022-11-11T05:58:03;100597.28;;;12.49;100.00
50380;BME280;37474;59.468;18.040;2022-11-11T06:00:32;100567.31;;;12.43;100.00
50380;BME280;37474;59.468;18.040;2022-11-11T06:03:01;100567.13;;;12.46;100.00
50380;BME280;37474;59.468;18.040;2022-11-11T06:05:29;100553.75;;;12.52;100.00
50380;BME280;37474;59.468;18.040;2022-11-11T06:08:03;100552.91;;;12.52;100.00
50380;BME280;37474;59.468;18.040;2022-11-11T06:10:31;100543.00;;;12.44;100.00
50380;BME280;37474;59.468;18.040;2022-11-11T06:12:58;100540.84;;;12.51;100.00
50380;BME280;37474;59.468;18.040;2022-11-11T06:15:35;100549.94;;;12.43;100.00
50380;BME280;37474;59.468;18.040;2022-11-11T06:18:04;100550.41;;;12.50;100.00
50380;BME280;37474;59.468;18.040;2022-11-11T06:20:33;100549.19;;;12.56;100.00
50380;BME280;37474;59.468;18.040;2022-11-11T06:23:07;100540.84;;;12.51;100.00
50380;BME280;37474;59.468;18.040;2022-11-11T06:25:34;100544.63;;;12.59;100.00
50380;BME280;37474;59.468;18.040;2022-11-11T06:28:22;100543.16;;;12.55;100.00
50380;BME280;37474;59.468;18.040;2022-11-11T06:30:49;100561.91;;;12.60;100.00
50380;BME280;37474;59.468;18.040;2022-11-11T06:33:17;100535.81;;;12.62;100.00
50380;BME280;37474;59.468;18.040;2022-11-11T06:35:50;100563.63;;;12.74;100.00
50380;BME280;37474;59.468;18.040;2022-11-11T06:38:20;100558.00;;;12.67;100.00
50380;BME280;37474;59.468;18.040;2022-11-11T06:40:47;100568.00;;;12.74;100.00
50380;BME280;37474;59.468;18.040;2022-11-11T06:43:17;100562.59;;;12.77;100.00
50380;BME280;37474;59.468;18.040;2022-11-11T06:45:48;100565.31;;;12.75;100.00
50380;BME280;37474;59.468;18.040;2022-11-11T06:48:22;100546.41;;;12.86;100.00
50380;BME280;37474;59.468;18.040;2022-11-11T06:50:50;100552.84;;;12.80;100.00
50380;BME280;37474;59.468;18.040;2022-11-11T06:53:22;100482.94;;;12.34;100.00
50380;BME280;37474;59.468;18.040;2022-11-11T06:55:52;100550.88;;;12.84;100.00
50380;BME280;37474;59.468;18.040;2022-11-11T06:58:23;100554.75;;;12.91;100.00
50380;BME280;37474;59.468;18.040;2022-11-11T07:00:52;100549.75;;;12.88;100.00
50380;BME280;37474;59.468;18.040;2022-11-11T07:03:21;100555.41;;;12.94;100.00
50380;BME280;37474;59.468;18.040;2022-11-11T07:05:53;100574.16;;;13.00;100.00
50380;BME280;37474;59.468;18.040;2022-11-11T07:08:26;100576.66;;;13.01;100.00
50380;BME280;37474;59.468;18.040;2022-11-11T07:10:54;100571.56;;;13.00;100.00
50380;BME280;37474;59.468;18.040;2022-11-11T07:13:23;100564.44;;;12.89;100.00
50380;BME280;37474;59.468;18.040;2022-11-11T07:15:53;100570.53;;;13.02;100.00
50380;BME280;37474;59.468;18.040;2022-11-11T07:18:20;100576.22;;;12.94;100.00
50380;BME280;37474;59.468;18.040;2022-11-11T07:20:49;100556.72;;;12.87;100.00
50380;BME280;37474;59.468;18.040;2022-11-11T07:23:21;100593.84;;;13.04;100.00
50380;BME280;37474;59.468;18.040;2022-11-11T07:25:50;100560.75;;;12.79;100.00
50380;BME280;37474;59.468;18.040;2022-11-11T07:28:18;100581.63;;;12.91;100.00
50380;BME280;37474;59.468;18.040;2022-11-11T07:30:48;100585.13;;;13.05;100.00
50380;BME280;37474;59.468;18.040;2022-11-11T07:33:16;100569.00;;;12.85;100.00
50380;BME280;37474;59.468;18.040;2022-11-11T07:35:52;100596.44;;;13.04;100.00
50380;BME280;37474;59.468;18.040;2022-11-11T07:38:21;100600.34;;;13.11;100.00
50380;BME280;37474;59.468;18.040;2022-11-11T07:40:51;100601.84;;;13.01;100.00
50380;BME280;37474;59.468;18.040;2022-11-11T07:43:21;100602.78;;;13.00;100.00
50380;BME280;37474;59.468;18.040;2022-11-11T07:45:52;100603.53;;;13.02;100.00
50380;BME280;37474;59.468;18.040;2022-11-11T07:48:20;100616.16;;;13.08;100.00
50380;BME280;37474;59.468;18.040;2022-11-11T07:50:51;100610.09;;;13.07;100.00
50380;BME280;37474;59.468;18.040;2022-11-11T07:53:21;100611.44;;;13.00;100.00
50380;BME280;37474;59.468;18.040;2022-11-11T07:55:55;100604.72;;;13.10;100.00
50380;BME280;37474;59.468;18.040;2022-11-11T07:58:25;100579.75;;;12.93;100.00
50380;BME280;37474;59.468;18.040;2022-11-11T08:00:53;100551.69;;;12.72;100.00
50380;BME280;37474;59.468;18.040;2022-11-11T08:03:23;100566.13;;;12.76;100.00
50380;BME280;37474;59.468;18.040;2022-11-11T08:05:54;100604.78;;;13.09;100.00
50380;BME280;37474;59.468;18.040;2022-11-11T08:08:22;100600.03;;;13.15;100.00
50380;BME280;37474;59.468;18.040;2022-11-11T08:10:56;100601.19;;;13.11;100.00
50380;BME280;37474;59.468;18.040;2022-11-11T08:13:25;100595.03;;;13.12;100.00
50380;BME280;37474;59.468;18.040;2022-11-11T08:16:08;100592.22;;;13.15;100.00
50380;BME280;37474;59.468;18.040;2022-11-11T08:18:36;100599.84;;;13.18;100.00
50380;BME280;37474;59.468;18.040;2022-11-11T08:21:04;100600.53;;;13.22;100.00
50380;BME280;37474;59.468;18.040;2022-11-11T08:23:34;100602.19;;;13.23;100.00
50380;BME280;37474;59.468;18.040;2022-11-11T08:26:26;100609.06;;;13.24;100.00
50380;BME280;37474;59.468;18.040;2022-11-11T08:28:55;100606.94;;;13.16;100.00
50380;BME280;37474;59.468;18.040;2022-11-11T08:31:23;100565.72;;;12.96;100.00
50380;BME280;37474;59.468;18.040;2022-11-11T08:33:52;100581.75;;;13.03;100.00
50380;BME280;37474;59.468;18.040;2022-11-11T08:36:22;100617.19;;;13.32;100.00
50380;BME280;37474;59.468;18.040;2022-11-11T08:38:51;100554.09;;;12.87;100.00
50380;BME280;37474;59.468;18.040;2022-11-11T08:41:19;100640.13;;;13.27;100.00
50380;BME280;37474;59.468;18.040;2022-11-11T08:43:53;100623.56;;;13.28;100.00
50380;BME280;37474;59.468;18.040;2022-11-11T08:46:23;100624.50;;;13.27;100.00
50380;BME280;37474;59.468;18.040;2022-11-11T08:48:53;100639.91;;;13.30;100.00
50380;BME280;37474;59.468;18.040;2022-11-11T08:51:21;100613.59;;;13.20;100.00
50380;BME280;37474;59.468;18.040;2022-11-11T08:53:51;100642.22;;;13.35;100.00
50380;BME280;37474;59.468;18.040;2022-11-11T08:56:21;100655.97;;;13.37;100.00
50380;BME280;37474;59.468;18.040;2022-11-11T08:58:48;100654.41;;;13.34;100.00
50380;BME280;37474;59.468;18.040;2022-11-11T09:01:19;100668.44;;;13.32;100.00
50380;BME280;37474;59.468;18.040;2022-11-11T09:03:50;100653.34;;;13.37;100.00
50380;BME280;37474;59.468;18.040;2022-11-11T09:06:18;100649.53;;;13.42;100.00
50380;BME280;37474;59.468;18.040;2022-11-11T09:08:48;100651.19;;;13.43;100.00
50380;BME280;37474;59.468;18.040;2022-11-11T09:11:16;100659.09;;;13.42;100.00
50380;BME280;37474;59.468;18.040;2022-11-11T09:13:44;100648.00;;;13.26;100.00
50380;BME280;37474;59.468;18.040;2022-11-11T09:16:13;100656.34;;;13.31;100.00
50380;BME280;37474;59.468;18.040;2022-11-11T09:18:42;100667.81;;;13.28;100.00
50380;BME280;37474;59.468;18.040;2022-11-11T09:21:10;100679.31;;;13.38;100.00
50380;BME280;37474;59.468;18.040;2022-11-11T09:23:38;100667.56;;;13.45;100.00
50380;BME280;37474;59.468;18.040;2022-11-11T09:26:06;100655.81;;;13.53;100.00
50380;BME280;37474;59.468;18.040;2022-11-11T09:28:33;100619.78;;;13.32;100.00
50380;BME280;37474;59.468;18.040;2022-11-11T09:31:02;100658.22;;;13.56;100.00
50380;BME280;37474;59.468;18.040;2022-11-11T09:33:51;100634.00;;;13.41;100.00
50380;BME280;37474;59.468;18.040;2022-11-11T09:36:20;100674.41;;;13.61;100.00
50380;BME280;37474;59.468;18.040;2022-11-11T09:38:48;100630.34;;;13.43;100.00
50380;BME280;37474;59.468;18.040;2022-11-11T09:41:19;100678.56;;;13.63;100.00
50380;BME280;37474;59.468;18.040;2022-11-11T09:43:54;100680.88;;;13.68;100.00
50380;BME280;37474;59.468;18.040;2022-11-11T09:46:38;100665.34;;;13.66;100.00
50380;BME280;37474;59.468;18.040;2022-11-11T09:49:36;100625.16;;;13.43;100.00
50380;BME280;37474;59.468;18.040;2022-11-11T09:52:09;100640.81;;;13.56;100.00
50380;BME280;37474;59.468;18.040;2022-11-11T09:54:47;100688.41;;;13.72;100.00
50380;BME280;37474;59.468;18.040;2022-11-11T09:57:22;100682.13;;;13.75;100.00
50380;BME280;37474;59.468;18.040;2022-11-11T09:59:56;100687.34;;;13.75;100.00
50380;BME280;37474;59.468;18.040;2022-11-11T10:02:33;100688.19;;;13.76;100.00
50380;BME280;37474;59.468;18.040;2022-11-11T10:05:10;100634.50;;;13.33;100.00
50380;BME280;37474;59.468;18.040;2022-11-11T10:07:43;100696.22;;;13.72;100.00
50380;BME280;37474;59.468;18.040;2022-11-11T10:10:20;100666.47;;;13.62;100.00
50380;BME280;37474;59.468;18.040;2022-11-11T10:12:53;100719.72;;;13.71;100.00
50380;BME280;37474;59.468;18.040;2022-11-11T10:15:25;100697.97;;;13.72;100.00
50380;BME280;37474;59.468;18.040;2022-11-11T10:18:07;100678.13;;;13.57;100.00
50380;BME280;37474;59.468;18.040;2022-11-11T10:20:47;100718.00;;;13.71;100.00
50380;BME280;37474;59.468;18.040;2022-11-11T10:23:21;100729.13;;;13.73;100.00
50380;BME280;37474;59.468;18.040;2022-11-11T10:25:52;100670.31;;;13.30;100.00
50380;BME280;37474;59.468;18.040;2022-11-11T10:28:24;100726.16;;;13.65;100.00
50380;BME280;37474;59.468;18.040;2022-11-11T10:30:54;100728.50;;;13.70;100.00
50380;BME280;37474;59.468;18.040;2022-11-11T10:33:26;100727.47;;;13.72;100.00
50380;BME280;37474;59.468;18.040;2022-11-11T10:35:59;100669.91;;;13.36;100.00
50380;BME280;37474;59.468;18.040;2022-11-11T10:38:37;100712.00;;;13.57;100.00
50380;BME280;37474;59.468;18.040;2022-11-11T10:41:10;100749.69;;;13.78;100.00
50380;BME280;37474;59.468;18.040;2022-11-11T10:43:44;100743.00;;;13.74;100.00
50380;BME280;37474;59.468;18.040;2022-11-11T10:46:16;100748.38;;;13.71;100.00
50380;BME280;37474;59.468;18.040;2022-11-11T10:48:52;100743.19;;;13.71;100.00
50380;BME280;37474;59.468;18.040;2022-11-11T10:51:24;100732.25;;;13.66;100.00
50380;BME280;37474;59.468;18.040;2022-11-11T10:54:01;100737.06;;;13.72;100.00
50380;BME280;37474;59.468;18.040;2022-11-11T10:56:35;100759.81;;;13.83;100.00
50380;BME280;37474;59.468;18.040;2022-11-11T10:59:13;100752.84;;;13.83;100.00
50380;BME280;37474;59.468;18.040;2022-11-11T11:01:50;100732.03;;;13.69;100.00
50380;BME280;37474;59.468;18.040;2022-11-11T11:04:25;100752.84;;;13.83;100.00
50380;BME280;37474;59.468;18.040;2022-11-11T11:06:58;100769.59;;;13.79;100.00
50380;BME280;37474;59.468;18.040;2022-11-11T11:09:34;100740.38;;;13.74;100.00
50380;BME280;37474;59.468;18.040;2022-11-11T11:12:08;100715.44;;;13.57;100.00
50380;BME280;37474;59.468;18.040;2022-11-11T11:14:42;100757.91;;;13.72;100.00
50380;BME280;37474;59.468;18.040;2022-11-11T11:17:14;100763.84;;;13.74;100.00
50380;BME280;37474;59.468;18.040;2022-11-11T11:20:06;100761.97;;;13.76;100.00
50380;BME280;37474;59.468;18.040;2022-11-11T11:22:45;100765.75;;;13.85;100.00
50380;BME280;37474;59.468;18.040;2022-11-11T11:25:18;100772.94;;;13.81;100.00
50380;BME280;37474;59.468;18.040;2022-11-11T11:27:48;100765.03;;;13.83;100.00
50380;BME280;37474;59.468;18.040;2022-11-11T11:30:20;100767.63;;;13.83;100.00
50380;BME280;37474;59.468;18.040;2022-11-11T11:32:56;100780.13;;;13.78;100.00
50380;BME280;37474;59.468;18.040;2022-11-11T11:35:33;100783.47;;;13.80;100.00
50380;BME280;37474;59.468;18.040;2022-11-11T11:38:04;100749.94;;;13.61;100.00
50380;BME280;37474;59.468;18.040;2022-11-11T11:40:48;100789.22;;;13.85;100.00
50380;BME280;37474;59.468;18.040;2022-11-11T11:43:32;100789.09;;;13.86;100.00
50380;BME280;37474;59.468;18.040;2022-11-11T11:46:02;100763.13;;;13.72;100.00
50380;BME280;37474;59.468;18.040;2022-11-11T11:49:02;100795.25;;;13.85;100.00
50380;BME280;37474;59.468;18.040;2022-11-11T11:51:42;100755.53;;;13.82;100.00
50380;BME280;37474;59.468;18.040;2022-11-11T11:54:35;100760.78;;;13.94;100.00
50380;BME280;37474;59.468;18.040;2022-11-11T11:57:27;100774.44;;;13.98;100.00
50380;BME280;37474;59.468;18.040;2022-11-11T12:00:02;100780.75;;;14.08;100.00
50380;BME280;37474;59.468;18.040;2022-11-11T12:02:54;100772.09;;;14.08;100.00
50380;BME280;37474;59.468;18.040;2022-11-11T12:05:34;100746.16;;;13.79;100.00
50380;BME280;37474;59.468;18.040;2022-11-11T12:08:17;100733.44;;;13.87;100.00
50380;BME280;37474;59.468;18.040;2022-11-11T12:10:58;100775.34;;;14.11;99.20
50380;BME280;37474;59.468;18.040;2022-11-11T12:13:34;100743.53;;;13.79;99.46
50380;BME280;37474;59.468;18.040;2022-11-11T12:16:16;100755.34;;;13.85;99.13
50380;BME280;37474;59.468;18.040;2022-11-11T12:19:02;100781.88;;;14.04;100.00
50380;BME280;37474;59.468;18.040;2022-11-11T12:21:38;100796.66;;;14.04;99.82
50380;BME280;37474;59.468;18.040;2022-11-11T12:24:17;100805.66;;;13.99;100.00
50380;BME280;37474;59.468;18.040;2022-11-11T12:27:04;100749.34;;;13.70;99.65
50380;BME280;37474;59.468;18.040;2022-11-11T12:29:47;100808.44;;;13.96;100.00
50380;BME280;37474;59.468;18.040;2022-11-11T12:32:29;100765.47;;;13.62;100.00
50380;BME280;37474;59.468;18.040;2022-11-11T12:35:06;100803.34;;;13.95;100.00
50380;BME280;37474;59.468;18.040;2022-11-11T12:37:47;100818.31;;;13.91;100.00
50380;BME280;37474;59.468;18.040;2022-11-11T12:40:25;100799.13;;;13.92;100.00
50380;BME280;37474;59.468;18.040;2022-11-11T12:43:10;100814.16;;;13.89;100.00
50380;BME280;37474;59.468;18.040;2022-11-11T12:45:47;100815.72;;;13.91;100.00
50380;BME280;37474;59.468;18.040;2022-11-11T12:48:30;100745.00;;;13.56;100.00
50380;BME280;37474;59.468;18.040;2022-11-11T12:51:11;100755.22;;;13.59;99.59
50380;BME280;37474;59.468;18.040;2022-11-11T12:53:51;100806.34;;;13.89;100.00
50380;BME280;37474;59.468;18.040;2022-11-11T12:56:29;100763.53;;;13.52;100.00
50380;BME280;37474;59.468;18.040;2022-11-11T12:59:11;100826.97;;;13.92;100.00
50380;BME280;37474;59.468;18.040;2022-11-11T13:01:53;100770.38;;;13.67;100.00
50380;BME280;37474;59.468;18.040;2022-11-11T13:04:32;100785.97;;;13.81;100.00
50380;BME280;37474;59.468;18.040;2022-11-11T13:07:30;100822.53;;;13.94;100.00